< < Back
Terminal Aerodrome Forecast


Current Version              Previous Versions:   1  2  3  4  5  6  7  8  9  

Terminal Aerodrome Forecast

549
FTUS42 KMLB 260900 AAB
TAFMCO
TAF AMD
KMCO 260953Z 2610/2706 21009KT P6SM VCSH FEW025 SCT035 BKN045
      TEMPO 2610/2612 4SM SHRA SCT015 BKN035 BKN040
     FM261400 26015G22KT P6SM SCT030 BKN050 BKN120
     FM261600 28020G28KT P6SM FEW030 SCT050 SCT120
     FM270000 28016G23KT P6SM SKC=

Latest METAR

118
SAUS70 KWBC 260958
MTRMCO
METAR KMCO 260953Z 19007KT 10SM SCT060 SCT075 SCT170 BKN230 14/12 A2985
RMK AO2 SLP105 T01390122


USA.gov is the U.S. government's official web portal to all federal, state and local government web resources and services.